Data for 08/01/2006

Time Sea-Level Adjusted Pressure Absolute Pressure Temperature Relative Humidity Dew Point   
(mb) (inHg) (mb) (inHg) (C) (F) (%) (C) (F)
00:05 1015 29.97 844 24.92 13.1 55.6 72 8.1 46.7
00:10 1015 29.97 844 24.92 13.2 55.8 71 8.1 46.6
00:15 1015 29.97 844 24.92 13.2 55.7 72 8.3 46.9
00:20 1015 29.97 844 24.92 13.2 55.8 72 8.3 46.9
00:25 1015 29.97 844 24.92 13.3 56 71 8.2 46.8
00:30 1015 29.97 844 24.92 13.5 56.2 70 8.2 46.7
00:35 1015 29.97 844 24.92 13.5 56.3 71 8.4 47.2
00:40 1015 29.97 844 24.92 13.4 56.1 71 8.3 46.9
00:45 1015 29.97 844 24.92 13.3 55.9 70 7.9 46.2
00:50 1015 29.97 844 24.92 13.2 55.7 69 7.7 45.8
00:55 1015 29.97 844 24.92 13.2 55.8 70 8 46.4
01:00 1015 29.97 844 24.92 13.7 56.6 68 7.9 46.2
01:05 1015 29.97 844 24.92 13.8 56.9 66 7.6 45.7
01:10 1016 30 845 24.95 13.9 56.9 64 7.2 44.9
01:15 1016 30 845 24.95 14.6 58.2 61 7.3 45.2
01:20 1016 30 845 24.95 14.9 58.8 62 7.8 46
01:25 1016 30 845 24.95 14.8 58.6 64 8 46.5
01:30 1016 30 846 24.98 14.5 58.2 65 8.1 46.5
01:35 1016 30 846 24.98 14.4 58 66 8.2 46.7
01:40 1017 30.03 846 24.98 14.2 57.6 68 8.4 47.2
01:45 1017 30.03 846 24.98 14 57.3 70 8.7 47.7
01:50 1017 30.03 846 24.98 13.9 57 70 8.6 47.6
01:55 1017 30.03 846 24.98 13.9 57.1 72 9 48.1
02:00 1017 30.03 846 24.98 13.7 56.7 73 9 48.1
02:05 1017 30.03 846 24.98 13.8 56.8 73 9 48.2
02:10 1017 30.03 846 24.98 13.7 56.7 73 9 48.3
02:15 1017 30.03 846 24.98 13.5 56.3 75 9.1 48.4
02:20 1016 30 846 24.98 13.2 55.7 75 8.9 48.1
02:25 1016 30 846 24.98 13 55.4 76 8.9 48
02:30 1016 30 845 24.95 13 55.3 75 8.6 47.5
02:35 1016 30 845 24.95 12.9 55.2 76 8.7 47.7
02:40 1016 30 845 24.95 12.9 55.2 75 8.6 47.4
02:45 1016 30 845 24.95 12.8 55.1 75 8.5 47.2
02:50 1016 30 845 24.95 12.9 55.2 74 8.4 47.1
02:55 1016 30 845 24.95 13 55.4 74 8.4 47.2
03:00 1016 30 845 24.95 13 55.3 73 8.4 47
03:05 1016 30 845 24.95 13 55.4 74 8.4 47.2
03:10 1016 30 845 24.95 13 55.4 72 8 46.5
03:15 1016 30 845 24.95 13.1 55.5 75 8.7 47.7
03:20 1016 30 845 24.95 13 55.4 72 8.1 46.6
03:25 1016 30 845 24.95 12.7 54.9 72 7.8 46
03:30 1016 30 845 24.95 12.7 54.9 72 7.8 46.1
03:35 1016 30 845 24.95 12.6 54.7 72 7.8 46
03:40 1016 30 845 24.95 12.5 54.5 78 8.7 47.7
03:45 1016 30 845 24.95 12.2 53.9 76 8.1 46.6
03:50 1016 30 845 24.95 11.6 52.9 78 7.9 46.2
03:55 1016 30 845 24.95 11.4 52.6 78 7.8 46
04:00 1015 29.97 845 24.95 11.7 53 74 7.3 45.2
04:05 1015 29.97 844 24.92 11.8 53.2 76 7.7 45.8
04:10 1015 29.97 844 24.92 11.6 52.9 77 7.7 45.9
04:15 1015 29.97 844 24.92 11.5 52.7 77 7.7 45.8
04:20 1015 29.97 844 24.92 11.2 52.2 79 7.8 46
04:25 1015 29.97 844 24.92 11.1 52 81 8 46.3
04:30 1015 29.97 844 24.92 11.2 52.2 79 7.8 46
04:35 1015 29.97 844 24.92 11.4 52.6 78 7.7 45.8
04:40 1015 29.97 844 24.92 11.5 52.7 77 7.6 45.6
04:45 1015 29.97 844 24.92 11.6 52.9 76 7.6 45.6
04:50 1015 29.97 844 24.92 11.8 53.2 74 7.4 45.3
04:55 1015 29.97 844 24.92 11.9 53.5 72 7.2 44.9
05:00 1015 29.97 844 24.92 12.1 53.7 71 7.1 44.7
05:05 1015 29.97 844 24.92 12.1 53.7 71 7 44.6
05:10 1015 29.97 844 24.92 12.1 53.8 72 7.3 45.2
05:15 1015 29.97 844 24.92 12.2 53.9 73 7.5 45.6
05:20 1015 29.97 844 24.92 12.4 54.3 73 7.7 45.9
05:25 1015 29.97 844 24.92 12.3 54.2 74 7.8 46.1
05:30 1015 29.97 844 24.92 12.3 54.2 75 8.1 46.6
05:35 1015 29.97 844 24.92 12.3 54.2 75 8.1 46.6
05:40 1015 29.97 844 24.92 12.3 54.2 76 8.2 46.8
05:45 1015 29.97 844 24.92 12.3 54.1 76 8.2 46.8
05:50 1015 29.97 844 24.92 12.3 54.1 76 8.2 46.7
05:55 1015 29.97 844 24.92 12.2 54 77 8.3 46.9
06:00 1015 29.97 844 24.92 12.1 53.8 77 8.3 46.9
06:05 1015 29.97 844 24.92 12 53.6 78 8.3 46.9
06:10 1015 29.97 844 24.92 11.9 53.4 78 8.3 46.9
06:15 1015 29.97 844 24.92 11.9 53.4 78 8.2 46.7
06:20 1015 29.97 844 24.92 12 53.5 78 8.3 46.9
06:25 1015 29.97 845 24.95 12.1 53.8 77 8.3 46.9
06:30 1015 29.97 845 24.95 12.2 54 77 8.3 46.9
06:35 1015 29.97 845 24.95 12.3 54.2 76 8.2 46.8
06:40 1016 30 845 24.95 12.6 54.7 77 8.7 47.6
06:45 1016 30 845 24.95 12.8 55 75 8.5 47.3
06:50 1016 30 845 24.95 12.8 55.1 75 8.5 47.2
06:55 1016 30 845 24.95 12.9 55.3 74 8.4 47.1
07:00 1016 30 845 24.95 12.9 55.2 75 8.5 47.3
07:05 1016 30 845 24.95 12.8 55.1 71 7.8 46
07:10 1016 30 845 24.95 12.9 55.3 73 8.2 46.7
07:15 1016 30 845 24.95 13 55.4 74 8.6 47.4
07:20 1016 30 845 24.95 13.1 55.6 74 8.6 47.4
07:25 1016 30 845 24.95 13.3 55.9 74 8.7 47.6
07:30 1016 30 845 24.95 13.2 55.8 75 8.9 48
07:35 1016 30 846 24.98 13.1 55.5 74 8.7 47.6
07:40 1016 30 846 24.98 13.1 55.5 76 8.9 48.1
07:45 1016 30 846 24.98 13 55.5 77 9 48.3
07:50 1017 30.03 846 24.98 12.8 55 77 8.9 48.1
07:55 1017 30.03 846 24.98 12.6 54.7 78 8.9 48
08:00 1017 30.03 846 24.98 12.4 54.2 79 8.8 47.8
08:05 1017 30.03 846 24.98 12 53.6 83 9.2 48.6
08:10 1017 30.03 846 24.98 11.8 53.2 87 9.6 49.3
08:15 1017 30.03 846 24.98 11.9 53.3 87 9.9 49.7
08:20 1017 30.03 846 24.98 11.9 53.4 84 9.3 48.8
08:25 1017 30.03 846 24.98 11.9 53.5 86 9.7 49.5
08:30 1017 30.03 847 25.01 12 53.5 87 9.9 49.9
08:35 1018 30.06 847 25.01 11.8 53.2 86 9.5 49.2
08:40 1018 30.06 847 25.01 12 53.6 86 9.7 49.5
08:45 1018 30.06 847 25.01 12.1 53.8 85 9.7 49.4
08:50 1018 30.06 847 25.01 11.9 53.5 86 9.6 49.3
08:55 1018 30.06 847 25.01 11.8 53.2 86 9.5 49.1
09:00 1018 30.06 847 25.01 11.7 53 86 9.4 48.9
09:05 1018 30.06 847 25.01 11.7 53 87 9.6 49.4
09:10 1018 30.06 847 25.01 11.7 53 85 9.3 48.8
09:15 1018 30.06 847 25.01 11.7 53 85 9.3 48.7
09:20 1018 30.06 847 25.01 11.7 53.1 85 9.3 48.8
09:25 1018 30.06 847 25.01 11.7 53.1 86 9.4 48.9
09:30 1018 30.06 847 25.01 11.8 53.2 88 9.9 49.8
09:35 1018 30.06 847 25.01 11.6 52.9 90 10 50
09:40 1018 30.06 847 25.01 11.6 52.8 91 10.1 50.2
09:45 1018 30.06 848 25.04 11.7 53 91 10.2 50.4
09:50 1018 30.06 848 25.04 11.6 52.8 91 10.1 50.2
09:55 1018 30.06 848 25.04 11.6 52.8 90 10 50.1
10:00 1018 30.06 848 25.04 11.6 52.8 88 9.6 49.3
10:05 1018 30.06 848 25.04 11.6 52.9 91 10.2 50.3
10:10 1018 30.06 848 25.04 11.5 52.7 90 9.9 49.9
10:15 1018 30.06 847 25.01 11.3 52.4 90 9.7 49.5
10:20 1018 30.06 847 25.01 11.2 52.1 89 9.5 49.1
10:25 1018 30.06 847 25.01 11.1 52 90 9.6 49.2
10:30 1018 30.06 847 25.01 11.4 52.4 87 9.2 48.6
10:35 1018 30.06 847 25.01 11.5 52.7 85 9 48.2
10:40 1018 30.06 847 25.01 11.8 53.3 80 8.5 47.3
10:45 1018 30.06 847 25.01 12.1 53.8 80 8.7 47.7
10:50 1018 30.06 847 25.01 12.4 54.3 81 9.2 48.6
10:55 1018 30.06 847 25.01 12.8 55 77 8.9 48.1
11:00 1018 30.06 847 25.01 12.9 55.1 74 8.3 47
11:05 1018 30.06 847 25.01 13.2 55.7 75 8.8 47.9
11:10 1018 30.06 847 25.01 13.5 56.3 75 9.2 48.6
11:15 1018 30.06 847 25.01 13.8 56.8 70 8.4 47.1
11:20 1018 30.06 847 25.01 13.7 56.7 71 8.5 47.3
11:25 1018 30.06 847 25.01 13.8 56.8 66 7.6 45.7
11:30 1018 30.06 847 25.01 14.2 57.5 67 8.1 46.7
11:35 1018 30.06 847 25.01 14.5 58.1 58 6.5 43.7
11:40 1018 30.06 847 25.01 15 59.1 56 6.5 43.8
11:45 1018 30.06 847 25.01 15.8 60.5 56 7.2 45
11:50 1018 30.06 847 25.01 16.3 61.4 53 6.9 44.5
11:55 1018 30.06 847 25.01 15.7 60.3 63 8.7 47.7
12:00 1018 30.06 847 25.01 16.4 61.4 52 6.5 43.7
12:05 1018 30.06 847 25.01 16.7 62 50 6.4 43.4
12:10 1018 30.06 847 25.01 17.3 63.1 48 6.2 43.1
12:15 1018 30.06 847 25.01 17.5 63.4 44 5.3 41.5
12:20 1018 30.06 847 25.01 18.2 64.7 44 5.9 42.7
12:25 1018 30.06 847 25.01 18 64.4 50 7.6 45.7
12:30 1018 30.06 847 25.01 18.2 64.7 45 6.3 43.3
12:35 1018 30.06 847 25.01 17.9 64.1 47 6.5 43.7
12:40 1018 30.06 847 25.01 17.8 64.1 44 5.6 42
12:45 1018 30.06 847 25.01 17.9 64.2 47 6.5 43.7
12:50 1018 30.06 847 25.01 18 64.3 47 6.6 43.9
12:55 1018 30.06 847 25.01 18.1 64.5 45 5.9 42.7
13:00 1018 30.06 847 25.01 18.5 65.3 45 6.3 43.4
13:05 1017 30.03 847 25.01 19.1 66.5 42 5.9 42.6
13:10 1017 30.03 847 25.01 19.4 66.9 40 5.6 42
13:15 1017 30.03 847 25.01 20.6 69.1 36 5.1 41.2
13:20 1017 30.03 847 25.01 21.1 70 34 4.9 40.7
13:25 1017 30.03 847 25.01 21.4 70.4 35 5.6 42.1
13:30 1017 30.03 847 25.01 20 68 38 5.5 41.9
13:35 1017 30.03 847 25.01 19.2 66.6 40 5.3 41.5
13:40 1017 30.03 847 25.01 19 66.2 40 5.3 41.5
13:45 1017 30.03 847 25.01 19.8 67.7 35 4 39.2
13:50 1017 30.03 847 25.01 20.7 69.2 33 3.9 38.9
13:55 1017 30.03 847 25.01 21 69.8 33 4.4 40
14:00 1017 30.03 846 24.98 21.5 70.7 33 4.8 40.6
14:05 1017 30.03 846 24.98 21.5 70.7 33 4.5 40.1
14:10 1017 30.03 846 24.98 21.1 69.9 34 4.8 40.7
14:15 1017 30.03 846 24.98 19.7 67.4 37 4.6 40.4
14:20 1017 30.03 846 24.98 20.2 68.4 33 3.8 38.8
14:25 1017 30.03 846 24.98 21 69.8 32 3.9 39.1
14:30 1017 30.03 846 24.98 21.3 70.4 29 2.8 37.1
14:35 1017 30.03 846 24.98 21.8 71.2 28 2.6 36.7
14:40 1017 30.03 846 24.98 21.6 70.8 28 2.2 36
14:45 1017 30.03 846 24.98 21.5 70.7 27 1.7 35.1
14:50 1017 30.03 846 24.98 22.1 71.7 26 1.9 35.5
14:55 1017 30.03 846 24.98 21.9 71.4 28 2.6 36.6
15:00 1017 30.03 846 24.98 21.8 71.3 28 2.7 36.8
15:05 1017 30.03 846 24.98 21.3 70.4 29 2.9 37.2
15:10 1017 30.03 846 24.98 21.5 70.7 29 3.1 37.6
15:15 1017 30.03 846 24.98 22 71.6 28 2.9 37.2
15:20 1017 30.03 846 24.98 22.8 73 26 2.4 36.2
15:25 1017 30.03 846 24.98 22.1 71.8 29 3.4 38.1
15:30 1017 30.03 846 24.98 21.9 71.5 26 1.5 34.8
15:35 1017 30.03 846 24.98 22.4 72.3 25 1.8 35.3
15:40 1017 30.03 846 24.98 22.8 73.1 24 1.6 34.9
15:45 1017 30.03 846 24.98 23.2 73.8 24 1.6 35
15:50 1017 30.03 846 24.98 23 73.4 25 2 35.5
15:55 1017 30.03 846 24.98 22.5 72.5 24 1.4 34.5
16:00 1017 30.03 846 24.98 23.1 73.6 24 1.7 35.1
16:05 1017 30.03 846 24.98 23 73.5 23 0.9 33.7
16:10 1017 30.03 846 24.98 23.6 74.4 23 1.2 34.1
16:15 1017 30.03 846 24.98 23.8 74.8 24 2.1 35.8
16:20 1017 30.03 846 24.98 23.9 75 23 1.7 35
16:25 1017 30.03 846 24.98 24.1 75.3 23 2.2 35.9
16:30 1017 30.03 846 24.98 23.9 75 23 1.8 35.3
16:35 1017 30.03 846 24.98 23.7 74.6 23 1.7 35
16:40 1017 30.03 846 24.98 22.7 72.9 25 1.7 35
16:45 1017 30.03 846 24.98 23.1 73.5 25 2.1 35.8
16:50 1017 30.03 846 24.98 23.5 74.2 23 1.5 34.6
16:55 1017 30.03 846 24.98 23.7 74.7 23 1.5 34.6
17:00 1017 30.03 846 24.98 24 75.2 20 0.2 32.4
17:05 1017 30.03 846 24.98 24.7 76.5 22 1.8 35.2
17:10 1017 30.03 846 24.98 24.6 76.3 21 1.2 34.2
17:15 1017 30.03 846 24.98 24.3 75.7 22 1.5 34.6
17:20 1017 30.03 846 24.98 24.1 75.3 22 1.1 34
17:25 1017 30.03 846 24.98 24 75.2 22 1.2 34.1
17:30 1017 30.03 846 24.98 24.3 75.7 22 1.6 34.8
17:35 1017 30.03 846 24.98 24.5 76.1 21 1 33.9
17:40 1017 30.03 846 24.98 24.1 75.4 22 1.1 34.1
17:45 1017 30.03 846 24.98 24.2 75.5 22 1 33.9
17:50 1017 30.03 846 24.98 23.8 74.8 23 1.6 34.9
17:55 1017 30.03 846 24.98 23.3 73.9 23 1.3 34.4
18:00 1017 30.03 846 24.98 23.5 74.3 22 1.1 34
18:05 1017 30.03 846 24.98 23.8 74.9 24 2.1 35.8
18:10 1017 30.03 846 24.98 24 75.2 22 1.2 34.1
18:15 1017 30.03 846 24.98 24.3 75.7 22 1.4 34.6
18:20 1016 30 846 24.98 24.4 75.9 22 1.2 34.2
18:25 1016 30 846 24.98 23.9 75 23 1.5 34.7
18:30 1016 30 846 24.98 23 73.4 24 1.8 35.3
18:35 1016 30 846 24.98 22.6 72.7 24 1 33.9
18:40 1016 30 846 24.98 22.8 73 24 1.3 34.3
18:45 1016 30 846 24.98 22.5 72.5 26 2.2 36
18:50 1016 30 846 24.98 22.1 71.9 25 1.4 34.6
18:55 1016 30 846 24.98 22.3 72.2 25 1.6 34.8
19:00 1016 30 846 24.98 23 73.4 24 1.4 34.6
19:05 1016 30 846 24.98 22.6 72.8 23 0.9 33.6
19:10 1016 30 846 24.98 22.3 72.2 25 1.4 34.5
19:15 1016 30 846 24.98 22.4 72.3 25 1.6 34.9
19:20 1017 30.03 846 24.98 22 71.7 24 0.5 32.8
19:25 1017 30.03 846 24.98 22 71.5 24 0.8 33.5
19:30 1017 30.03 846 24.98 22.1 71.7 25 1.3 34.3
19:35 1017 30.03 846 24.98 22 71.6 25 1.4 34.6
19:40 1017 30.03 846 24.98 21.8 71.3 25 1.3 34.3
19:45 1017 30.03 846 24.98 21.5 70.8 25 0.9 33.7
19:50 1017 30.03 846 24.98 21.5 70.6 26 1.6 34.8
19:55 1017 30.03 846 24.98 21.5 70.7 26 1.3 34.4
20:00 1017 30.03 846 24.98 21.6 70.8 26 1.3 34.4
20:05 1017 30.03 846 24.98 21.5 70.8 27 1.8 35.3
20:10 1017 30.03 846 24.98 21.4 70.6 26 1.3 34.3
20:15 1017 30.03 846 24.98 21.4 70.5 32 4.1 39.3
20:20 1017 30.03 846 24.98 21.3 70.4 29 2.7 36.8
20:25 1017 30.03 846 24.98 21.2 70.2 30 2.9 37.2
20:30 1017 30.03 846 24.98 21 69.9 31 3.3 38
20:35 1017 30.03 846 24.98 21 69.8 30 2.7 36.9
20:40 1017 30.03 846 24.98 21 69.7 29 2.6 36.7
20:45 1017 30.03 846 24.98 20.7 69.2 38 6.1 43
20:50 1017 30.03 846 24.98 19.5 67.2 39 5.3 41.5
20:55 1017 30.03 846 24.98 19.1 66.3 41 5.6 42
21:00 1017 30.03 846 24.98 18.9 66 38 4.6 40.2
21:05 1017 30.03 846 24.98 19.2 66.5 35 3.5 38.3
21:10 1017 30.03 846 24.98 19.1 66.3 37 4 39.3
21:15 1017 30.03 846 24.98 18.6 65.6 37 3.8 38.8
21:20 1017 30.03 846 24.98 18.3 65 39 4.2 39.5
21:25 1017 30.03 847 25.01 18 64.5 40 4.5 40.1
21:30 1017 30.03 847 25.01 17.7 63.9 44 5.3 41.6
21:35 1017 30.03 847 25.01 17.4 63.4 42 4.7 40.4
21:40 1017 30.03 847 25.01 17.3 63.2 41 4.2 39.6
21:45 1018 30.06 847 25.01 17.5 63.5 44 5.3 41.6
21:50 1018 30.06 847 25.01 17.2 62.9 43 4.6 40.3
21:55 1018 30.06 847 25.01 16.7 62 41 3.5 38.3
22:00 1018 30.06 847 25.01 16.9 62.4 40 3.3 37.9
22:05 1018 30.06 847 25.01 17.4 63.3 37 2.5 36.6
22:10 1018 30.06 847 25.01 17.6 63.8 37 2.8 37
22:15 1018 30.06 847 25.01 17.8 64.1 37 3.1 37.6
22:20 1018 30.06 847 25.01 17.6 63.7 39 3.7 38.6
22:25 1018 30.06 847 25.01 17.4 63.3 40 3.7 38.6
22:30 1018 30.06 847 25.01 17.1 62.8 42 4.3 39.8
22:35 1018 30.06 847 25.01 17 62.6 41 3.9 39
22:40 1018 30.06 848 25.04 17.2 63 41 3.9 39.1
22:45 1018 30.06 848 25.04 16.8 62.3 43 4.1 39.5
22:50 1018 30.06 848 25.04 16.5 61.8 43 4.1 39.4
22:55 1018 30.06 848 25.04 16 60.9 46 4.4 39.9
23:00 1019 30.09 848 25.04 15.4 59.8 49 5 41
23:05 1019 30.09 848 25.04 15.1 59.3 50 5 40.9
23:10 1019 30.09 848 25.04 14.9 58.9 51 4.9 40.8
23:15 1019 30.09 848 25.04 14.6 58.3 52 5.1 41.1
23:20 1019 30.09 848 25.04 14.3 57.7 53 5 41
23:25 1019 30.09 848 25.04 14.3 57.7 53 5 41.1
23:30 1019 30.09 848 25.04 14.4 57.9 52 4.8 40.6
23:35 1019 30.09 848 25.04 15.1 59.1 47 4 39.2
23:40 1019 30.09 848 25.04 15.7 60.2 47 4.5 40
23:45 1019 30.09 848 25.04 15.2 59.4 48 4.5 40.2
23:50 1019 30.09 848 25.04 14.6 58.4 51 4.7 40.5
23:55 1019 30.09 848 25.04 14.2 57.6 53 4.8 40.6
24:00 1019 30.09 848 25.04 14 57.3 53 4.6 40.3